sensor_id;sensor_type;location;lat;lon;timestamp;P1;durP1;ratioP1;P2;durP2;ratioP2
3831;SDS011;12460;42.662;23.288;2023-04-03T00:04:05;3.43;;;3.07;;
3831;SDS011;12460;42.662;23.288;2023-04-03T00:19:10;2.90;;;2.70;;
3831;SDS011;12460;42.662;23.288;2023-04-03T00:34:14;3.43;;;2.73;;
3831;SDS011;12460;42.662;23.288;2023-04-03T00:49:18;3.60;;;3.30;;
3831;SDS011;12460;42.662;23.288;2023-04-03T01:04:33;4.20;;;3.33;;
3831;SDS011;12460;42.662;23.288;2023-04-03T01:19:43;3.30;;;3.03;;
3831;SDS011;12460;42.662;23.288;2023-04-03T01:34:57;4.10;;;3.80;;
3831;SDS011;12460;42.662;23.288;2023-04-03T01:50:02;4.63;;;3.80;;
3831;SDS011;12460;42.662;23.288;2023-04-03T02:05:09;4.40;;;4.00;;
3831;SDS011;12460;42.662;23.288;2023-04-03T02:20:15;4.67;;;4.17;;
3831;SDS011;12460;42.662;23.288;2023-04-03T02:35:19;4.93;;;4.43;;
3831;SDS011;12460;42.662;23.288;2023-04-03T02:50:25;6.17;;;4.70;;
3831;SDS011;12460;42.662;23.288;2023-04-03T03:05:30;7.03;;;5.40;;
3831;SDS011;12460;42.662;23.288;2023-04-03T03:20:35;6.67;;;4.90;;
3831;SDS011;12460;42.662;23.288;2023-04-03T03:35:40;11.87;;;9.10;;
3831;SDS011;12460;42.662;23.288;2023-04-03T03:50:46;5.73;;;5.03;;
3831;SDS011;12460;42.662;23.288;2023-04-03T04:05:52;6.17;;;5.60;;
3831;SDS011;12460;42.662;23.288;2023-04-03T04:20:57;6.93;;;6.23;;
3831;SDS011;12460;42.662;23.288;2023-04-03T04:36:03;9.27;;;7.10;;
3831;SDS011;12460;42.662;23.288;2023-04-03T04:51:09;10.00;;;6.30;;
3831;SDS011;12460;42.662;23.288;2023-04-03T05:06:16;8.87;;;7.93;;
3831;SDS011;12460;42.662;23.288;2023-04-03T05:21:21;9.07;;;7.87;;
3831;SDS011;12460;42.662;23.288;2023-04-03T05:36:27;10.73;;;7.80;;
3831;SDS011;12460;42.662;23.288;2023-04-03T05:51:37;15.07;;;10.10;;
3831;SDS011;12460;42.662;23.288;2023-04-03T06:06:56;12.70;;;10.90;;
3831;SDS011;12460;42.662;23.288;2023-04-03T06:22:02;22.30;;;18.47;;
3831;SDS011;12460;42.662;23.288;2023-04-03T06:37:10;18.60;;;15.00;;
3831;SDS011;12460;42.662;23.288;2023-04-03T06:52:19;17.67;;;13.40;;
3831;SDS011;12460;42.662;23.288;2023-04-03T07:07:24;11.27;;;9.60;;
3831;SDS011;12460;42.662;23.288;2023-04-03T07:22:29;10.93;;;9.10;;
3831;SDS011;12460;42.662;23.288;2023-04-03T07:37:34;8.00;;;7.23;;
3831;SDS011;12460;42.662;23.288;2023-04-03T07:52:39;6.53;;;5.20;;
3831;SDS011;12460;42.662;23.288;2023-04-03T08:07:43;4.97;;;4.47;;
3831;SDS011;12460;42.662;23.288;2023-04-03T08:22:47;6.47;;;5.70;;
3831;SDS011;12460;42.662;23.288;2023-04-03T08:37:52;9.97;;;8.97;;
3831;SDS011;12460;42.662;23.288;2023-04-03T08:52:57;12.43;;;11.20;;
3831;SDS011;12460;42.662;23.288;2023-04-03T09:08:09;23.57;;;19.57;;
3831;SDS011;12460;42.662;23.288;2023-04-03T09:38:34;16.97;;;11.83;;
3831;SDS011;12460;42.662;23.288;2023-04-03T09:53:42;4.80;;;4.17;;
3831;SDS011;12460;42.662;23.288;2023-04-03T10:08:58;4.37;;;3.77;;
3831;SDS011;12460;42.662;23.288;2023-04-03T11:10:21;3.90;;;3.60;;
3831;SDS011;12460;42.662;23.288;2023-04-03T11:25:36;4.90;;;4.40;;
3831;SDS011;12460;42.662;23.288;2023-04-03T11:40:47;7.67;;;5.73;;
3831;SDS011;12460;42.662;23.288;2023-04-03T11:55:54;7.40;;;6.70;;
3831;SDS011;12460;42.662;23.288;2023-04-03T12:42:01;6.53;;;5.93;;
3831;SDS011;12460;42.662;23.288;2023-04-03T12:57:52;7.10;;;6.47;;
3831;SDS011;12460;42.662;23.288;2023-04-03T13:13:09;8.40;;;7.47;;
3831;SDS011;12460;42.662;23.288;2023-04-03T13:28:28;8.80;;;7.90;;
3831;SDS011;12460;42.662;23.288;2023-04-03T13:43:35;15.13;;;7.40;;
3831;SDS011;12460;42.662;23.288;2023-04-03T13:58:51;8.70;;;7.90;;
3831;SDS011;12460;42.662;23.288;2023-04-03T14:14:00;10.93;;;8.53;;
3831;SDS011;12460;42.662;23.288;2023-04-03T14:29:09;6.10;;;5.53;;
3831;SDS011;12460;42.662;23.288;2023-04-03T14:44:14;6.10;;;5.50;;
3831;SDS011;12460;42.662;23.288;2023-04-03T14:59:18;5.40;;;4.60;;
3831;SDS011;12460;42.662;23.288;2023-04-03T15:14:24;5.80;;;4.70;;
3831;SDS011;12460;42.662;23.288;2023-04-03T15:29:39;5.60;;;5.10;;
3831;SDS011;12460;42.662;23.288;2023-04-03T15:44:45;6.27;;;5.77;;
3831;SDS011;12460;42.662;23.288;2023-04-03T15:59:49;8.73;;;7.50;;
3831;SDS011;12460;42.662;23.288;2023-04-03T16:14:54;7.13;;;6.43;;
3831;SDS011;12460;42.662;23.288;2023-04-03T16:29:58;9.33;;;7.10;;
3831;SDS011;12460;42.662;23.288;2023-04-03T16:45:04;6.63;;;5.87;;
3831;SDS011;12460;42.662;23.288;2023-04-03T17:00:10;4.40;;;4.10;;
3831;SDS011;12460;42.662;23.288;2023-04-03T17:15:15;5.50;;;5.00;;
3831;SDS011;12460;42.662;23.288;2023-04-03T17:30:20;5.30;;;4.80;;
3831;SDS011;12460;42.662;23.288;2023-04-03T17:45:25;5.93;;;5.43;;
3831;SDS011;12460;42.662;23.288;2023-04-03T18:00:30;6.87;;;5.27;;
3831;SDS011;12460;42.662;23.288;2023-04-03T18:15:35;4.17;;;3.77;;
3831;SDS011;12460;42.662;23.288;2023-04-03T18:30:46;3.03;;;2.83;;
3831;SDS011;12460;42.662;23.288;2023-04-03T18:45:50;2.60;;;2.50;;
3831;SDS011;12460;42.662;23.288;2023-04-03T19:00:54;2.30;;;2.10;;
3831;SDS011;12460;42.662;23.288;2023-04-03T19:15:58;2.03;;;1.93;;
3831;SDS011;12460;42.662;23.288;2023-04-03T19:31:02;2.20;;;2.10;;
3831;SDS011;12460;42.662;23.288;2023-04-03T19:46:21;2.17;;;2.00;;
3831;SDS011;12460;42.662;23.288;2023-04-03T20:01:27;3.33;;;3.00;;
3831;SDS011;12460;42.662;23.288;2023-04-03T20:16:33;6.47;;;4.60;;
3831;SDS011;12460;42.662;23.288;2023-04-03T20:31:38;3.17;;;2.47;;
3831;SDS011;12460;42.662;23.288;2023-04-03T20:46:44;1.70;;;1.60;;
3831;SDS011;12460;42.662;23.288;2023-04-03T21:01:55;2.33;;;2.20;;
3831;SDS011;12460;42.662;23.288;2023-04-03T21:32:07;1.60;;;1.50;;
3831;SDS011;12460;42.662;23.288;2023-04-03T21:47:11;1.90;;;1.80;;
3831;SDS011;12460;42.662;23.288;2023-04-03T22:02:16;1.70;;;1.60;;
3831;SDS011;12460;42.662;23.288;2023-04-03T22:17:23;1.97;;;1.87;;
3831;SDS011;12460;42.662;23.288;2023-04-03T22:32:28;2.57;;;2.37;;
3831;SDS011;12460;42.662;23.288;2023-04-03T22:47:32;2.83;;;2.60;;
3831;SDS011;12460;42.662;23.288;2023-04-03T23:02:36;2.50;;;2.30;;
3831;SDS011;12460;42.662;23.288;2023-04-03T23:17:39;2.17;;;2.07;;
3831;SDS011;12460;42.662;23.288;2023-04-03T23:32:43;3.00;;;2.80;;
3831;SDS011;12460;42.662;23.288;2023-04-03T23:47:47;3.50;;;3.20;;
